createdAt,value
2019-05-26T00:02:19.194Z,68.92
2019-05-26T00:04:49.231Z,68.82
2019-05-26T00:07:30.172Z,69.10
2019-05-26T00:09:51.650Z,69.12
2019-05-26T00:12:22.131Z,69.39
2019-05-26T00:14:52.121Z,69.34
2019-05-26T00:17:22.145Z,69.37
2019-05-26T00:19:52.137Z,69.54
2019-05-26T00:22:22.119Z,69.67
2019-05-26T00:24:52.139Z,69.73
2019-05-26T00:27:22.207Z,70.07
2019-05-26T00:29:52.186Z,70.06
2019-05-26T00:32:22.274Z,70.00
2019-05-26T00:34:52.318Z,69.89
2019-05-26T00:37:22.409Z,70.05
2019-05-26T00:39:52.464Z,70.07
2019-05-26T00:42:22.474Z,70.04
2019-05-26T00:44:52.459Z,70.06
2019-05-26T00:47:22.505Z,70.02
2019-05-26T00:49:52.652Z,69.93
2019-05-26T00:52:22.659Z,69.95
2019-05-26T00:54:52.638Z,70.03
2019-05-26T00:57:22.654Z,70.05
2019-05-26T00:59:52.635Z,70.01
2019-05-26T01:02:22.581Z,70.00
2019-05-26T01:04:52.625Z,69.42
2019-05-26T01:07:22.707Z,69.18
2019-05-26T01:09:52.683Z,69.09
2019-05-26T01:12:22.761Z,69.17
2019-05-26T01:14:52.670Z,69.06
2019-05-26T01:17:22.687Z,69.08
2019-05-26T01:19:52.698Z,69.49
2019-05-26T01:22:22.680Z,69.34
2019-05-26T01:24:52.679Z,69.28
2019-05-26T01:27:22.601Z,69.41
2019-05-26T01:29:52.682Z,69.35
2019-05-26T01:32:22.662Z,69.37
2019-05-26T01:34:52.677Z,69.47
2019-05-26T01:37:22.858Z,69.21
2019-05-26T01:39:52.947Z,69.20
2019-05-26T01:42:22.914Z,69.26
2019-05-26T01:44:52.926Z,69.49
2019-05-26T01:47:22.898Z,69.38
2019-05-26T01:49:52.909Z,69.34
2019-05-26T01:52:22.887Z,69.27
2019-05-26T01:54:52.901Z,69.28
2019-05-26T01:57:22.874Z,69.13
2019-05-26T01:59:52.886Z,69.34
2019-05-26T02:02:22.929Z,69.08
2019-05-26T02:04:52.866Z,68.87
2019-05-26T02:07:22.910Z,68.93
2019-05-26T02:09:52.926Z,68.99
2019-05-26T02:12:22.907Z,68.98
2019-05-26T02:14:52.918Z,68.95
2019-05-26T02:17:22.905Z,68.94
2019-05-26T02:19:52.923Z,68.90
2019-05-26T02:22:22.901Z,69.09
2019-05-26T02:24:52.990Z,69.08
2019-05-26T02:27:22.890Z,68.97
2019-05-26T02:29:52.899Z,68.77
2019-05-26T02:32:22.809Z,69.08
2019-05-26T02:34:52.797Z,68.90
2019-05-26T02:37:22.820Z,68.69
2019-05-26T02:39:52.809Z,68.60
2019-05-26T02:42:22.792Z,68.55
2019-05-26T02:44:52.766Z,68.51
2019-05-26T02:47:22.795Z,68.51
2019-05-26T02:49:52.774Z,68.30
2019-05-26T02:52:22.823Z,68.26
2019-05-26T02:54:52.803Z,68.28
2019-05-26T02:57:22.788Z,68.29
2019-05-26T02:59:52.910Z,68.39
2019-05-26T03:02:23.548Z,68.39
2019-05-26T03:04:53.560Z,68.35
2019-05-26T03:07:26.031Z,68.30
2019-05-26T03:09:57.939Z,68.24
2019-05-26T03:12:30.581Z,68.26
2019-05-26T03:15:03.318Z,68.37
2019-05-26T03:17:34.520Z,68.65
2019-05-26T03:20:05.806Z,68.54
2019-05-26T03:22:38.692Z,68.47
2019-05-26T03:25:09.599Z,68.25
2019-05-26T03:27:40.353Z,68.40
2019-05-26T03:30:12.431Z,68.37
2019-05-26T03:32:42.370Z,68.46
2019-05-26T03:35:12.861Z,68.42
2019-05-26T03:37:42.970Z,68.36
2019-05-26T03:40:13.130Z,68.06
2019-05-26T03:42:43.104Z,68.06
2019-05-26T03:45:21.892Z,68.10
2019-05-26T03:47:51.805Z,67.99
2019-05-26T03:50:21.803Z,67.92
2019-05-26T03:52:51.789Z,67.93
2019-05-26T03:55:21.805Z,68.07
2019-05-26T03:57:51.767Z,67.90
2019-05-26T04:00:21.801Z,67.86
2019-05-26T04:02:51.868Z,67.92
2019-05-26T04:05:21.852Z,68.09
2019-05-26T04:07:51.830Z,68.08
2019-05-26T04:10:21.839Z,68.12
2019-05-26T04:12:51.818Z,68.11
2019-05-26T04:15:21.822Z,67.95
2019-05-26T04:17:51.800Z,68.00
2019-05-26T04:20:21.777Z,67.89
2019-05-26T04:22:51.782Z,67.81
2019-05-26T04:25:21.770Z,67.75
2019-05-26T04:27:51.801Z,67.81
2019-05-26T04:30:21.901Z,67.50
2019-05-26T04:32:52.121Z,67.38
2019-05-26T04:35:22.122Z,67.41
2019-05-26T04:37:52.026Z,67.53
2019-05-26T04:40:27.059Z,67.38
2019-05-26T04:42:53.701Z,67.36
2019-05-26T04:45:23.711Z,67.35
2019-05-26T04:47:53.623Z,67.36
2019-05-26T04:50:23.625Z,67.35
2019-05-26T04:53:06.107Z,67.30
2019-05-26T04:55:25.359Z,67.34
2019-05-26T04:57:55.340Z,67.52
2019-05-26T05:00:25.348Z,67.70
2019-05-26T05:02:55.245Z,67.64
2019-05-26T05:05:25.255Z,67.48
2019-05-26T05:07:56.355Z,67.32
2019-05-26T05:10:41.367Z,67.23
2019-05-26T05:12:59.267Z,67.23
2019-05-26T05:15:29.273Z,67.19
2019-05-26T05:17:59.751Z,67.11
2019-05-26T05:20:29.758Z,67.07
2019-05-26T05:22:59.694Z,66.87
2019-05-26T05:25:29.739Z,66.69
2019-05-26T05:27:59.819Z,66.42
2019-05-26T05:30:29.797Z,66.39
2019-05-26T05:32:59.769Z,66.28
2019-05-26T05:35:29.776Z,66.14
2019-05-26T05:37:59.676Z,65.90
2019-05-26T05:40:29.697Z,65.74
2019-05-26T05:42:59.661Z,65.60
2019-05-26T05:45:30.586Z,65.42
2019-05-26T05:48:00.498Z,65.41
2019-05-26T05:50:30.503Z,65.49
2019-05-26T05:53:00.475Z,65.44
2019-05-26T05:55:30.412Z,65.34
2019-05-26T05:58:00.379Z,65.24
2019-05-26T06:00:30.458Z,65.24
2019-05-26T06:03:00.442Z,65.22
2019-05-26T06:05:30.449Z,64.82
2019-05-26T06:08:01.406Z,64.50
2019-05-26T06:10:31.338Z,64.53
2019-05-26T06:13:01.303Z,64.41
2019-05-26T06:15:31.375Z,64.25
2019-05-26T06:18:01.415Z,64.16
2019-05-26T06:20:31.427Z,64.00
2019-05-26T06:23:01.394Z,63.81
2019-05-26T06:25:31.338Z,63.77
2019-05-26T06:28:01.485Z,63.50
2019-05-26T06:30:31.859Z,63.21
2019-05-26T06:33:01.722Z,63.05
2019-05-26T06:35:32.868Z,62.46
2019-05-26T06:38:03.393Z,62.57
2019-05-26T06:40:33.295Z,62.08
2019-05-26T06:43:03.302Z,62.28
2019-05-26T06:45:33.304Z,61.84
2019-05-26T06:48:03.380Z,61.93
2019-05-26T06:50:33.377Z,61.91
2019-05-26T06:53:03.286Z,61.87
2019-05-26T06:55:33.259Z,61.59
2019-05-26T06:58:03.273Z,61.57
2019-05-26T07:00:33.330Z,61.55
2019-05-26T07:03:03.359Z,60.79
2019-05-26T07:05:33.421Z,60.92
2019-05-26T07:08:03.502Z,60.54
2019-05-26T07:10:33.472Z,60.44
2019-05-26T07:13:03.544Z,60.31
2019-05-26T07:15:33.514Z,60.18
2019-05-26T07:18:03.516Z,58.58
2019-05-26T07:20:33.491Z,58.21
2019-05-26T07:23:03.838Z,58.87
2019-05-26T07:25:34.394Z,59.23
2019-05-26T07:28:04.519Z,59.48
2019-05-26T07:30:34.546Z,59.09
2019-05-26T07:33:05.063Z,58.98
2019-05-26T07:35:35.210Z,58.88
2019-05-26T07:38:05.218Z,57.77
2019-05-26T07:40:35.282Z,58.26
2019-05-26T07:43:05.288Z,58.42
2019-05-26T07:45:35.336Z,58.51
2019-05-26T07:48:05.455Z,58.55
2019-05-26T07:50:35.423Z,57.98
2019-05-26T07:53:05.497Z,57.68
2019-05-26T07:55:35.571Z,57.02
2019-05-26T07:58:05.647Z,56.35
2019-05-26T08:00:35.733Z,56.43
2019-05-26T08:03:05.774Z,55.49
2019-05-26T08:05:35.785Z,55.20
2019-05-26T08:08:12.715Z,55.78
2019-05-26T08:10:37.466Z,55.70
2019-05-26T08:13:07.510Z,56.53
2019-05-26T08:15:37.522Z,55.93
2019-05-26T08:18:07.557Z,56.58
2019-05-26T08:20:37.559Z,56.74
2019-05-26T08:23:07.527Z,55.88
2019-05-26T08:25:37.456Z,55.79
2019-05-26T08:28:07.388Z,54.74
2019-05-26T08:30:37.366Z,54.47
2019-05-26T08:33:07.373Z,54.42
2019-05-26T08:35:37.421Z,54.16
2019-05-26T08:38:07.507Z,53.86
2019-05-26T08:40:37.481Z,52.80
2019-05-26T08:43:07.557Z,52.92
2019-05-26T08:45:37.529Z,52.80
2019-05-26T08:48:07.544Z,52.20
2019-05-26T08:50:37.523Z,52.06
2019-05-26T08:53:07.603Z,51.83
2019-05-26T08:55:37.584Z,51.50
2019-05-26T08:58:07.593Z,50.84
2019-05-26T09:00:37.663Z,51.51
2019-05-26T09:03:07.741Z,51.51
2019-05-26T09:05:37.714Z,51.06
2019-05-26T09:08:08.359Z,50.76
2019-05-26T09:10:38.976Z,51.75
2019-05-26T09:13:08.997Z,50.77
2019-05-26T09:15:38.882Z,50.81
2019-05-26T09:18:08.964Z,50.96
2019-05-26T09:20:38.934Z,50.79
2019-05-26T09:23:08.972Z,50.29
2019-05-26T09:25:38.951Z,48.39
2019-05-26T09:28:08.954Z,48.00
2019-05-26T09:30:38.924Z,47.72
2019-05-26T09:33:09.065Z,43.93
2019-05-26T09:35:39.088Z,42.08
2019-05-26T09:38:10.178Z,45.23
2019-05-26T09:40:40.227Z,45.93
2019-05-26T09:43:16.150Z,42.83
2019-05-26T09:45:42.116Z,43.51
2019-05-26T09:48:12.190Z,44.09
2019-05-26T09:50:42.275Z,44.91
2019-05-26T09:53:12.945Z,44.55
2019-05-26T09:55:42.920Z,43.36
2019-05-26T09:58:13.007Z,42.66
2019-05-26T10:00:44.748Z,43.61
2019-05-26T10:03:14.751Z,42.40
2019-05-26T10:05:44.669Z,42.51
2019-05-26T10:08:14.819Z,41.44
2019-05-26T10:10:44.866Z,42.07
2019-05-26T10:13:29.112Z,43.25
2019-05-26T10:15:46.535Z,43.79
2019-05-26T10:18:16.579Z,44.28
2019-05-26T10:20:46.588Z,44.06
2019-05-26T10:23:16.713Z,43.81
2019-05-26T10:25:46.618Z,43.96
2019-05-26T10:28:16.619Z,44.17
2019-05-26T10:30:46.637Z,44.24
2019-05-26T10:33:16.620Z,43.88
2019-05-26T10:35:46.628Z,42.19
2019-05-26T10:38:16.605Z,40.38
2019-05-26T10:40:46.693Z,40.11
2019-05-26T10:43:16.751Z,40.17
2019-05-26T10:45:46.762Z,40.17
2019-05-26T10:48:16.735Z,37.10
2019-05-26T10:50:46.713Z,37.81
2019-05-26T10:53:16.725Z,39.11
2019-05-26T10:55:46.810Z,37.44
2019-05-26T10:58:16.726Z,38.38
2019-05-26T11:00:46.725Z,40.69
2019-05-26T11:03:16.767Z,40.79
2019-05-26T11:05:46.856Z,40.74
2019-05-26T11:08:16.771Z,39.30
2019-05-26T11:10:46.772Z,38.96
2019-05-26T11:13:16.769Z,38.92
2019-05-26T11:15:46.772Z,39.52
2019-05-26T11:18:16.750Z,39.75
2019-05-26T11:20:47.763Z,40.08
2019-05-26T11:23:17.730Z,40.30
2019-05-26T11:25:47.811Z,40.18
2019-05-26T11:28:17.862Z,39.65
2019-05-26T11:30:48.004Z,38.97
2019-05-26T11:33:18.010Z,38.21
2019-05-26T11:35:47.981Z,38.16
2019-05-26T11:38:18.005Z,37.50
2019-05-26T11:40:49.082Z,37.19
2019-05-26T11:43:19.133Z,37.82
2019-05-26T11:45:49.047Z,36.64
2019-05-26T11:48:19.134Z,38.31
2019-05-26T11:50:49.103Z,37.02
2019-05-26T11:53:19.268Z,39.04
2019-05-26T11:55:49.386Z,39.29
2019-05-26T11:58:19.339Z,37.61
2019-05-26T12:00:49.380Z,38.95
2019-05-26T12:03:19.394Z,39.42
2019-05-26T12:05:49.465Z,39.05
2019-05-26T12:08:19.453Z,40.39
2019-05-26T12:10:49.494Z,39.74
2019-05-26T12:13:19.588Z,39.23
2019-05-26T12:15:49.725Z,40.13
2019-05-26T12:18:19.740Z,40.08
2019-05-26T12:20:49.842Z,40.70
2019-05-26T12:23:19.977Z,40.07
2019-05-26T12:25:49.954Z,39.85
2019-05-26T12:28:20.035Z,39.84
2019-05-26T12:30:50.099Z,40.02
2019-05-26T12:33:20.123Z,40.34
2019-05-26T12:35:50.172Z,38.97
2019-05-26T12:38:20.175Z,39.79
2019-05-26T12:40:50.183Z,39.43
2019-05-26T12:43:20.293Z,38.94
2019-05-26T12:45:50.438Z,38.47
2019-05-26T12:48:21.492Z,38.91
2019-05-26T12:50:51.561Z,38.62
2019-05-26T12:53:21.537Z,38.87
2019-05-26T12:55:51.574Z,39.10
2019-05-26T12:58:21.492Z,38.84
2019-05-26T13:00:54.831Z,37.06
2019-05-26T13:03:23.136Z,37.46
2019-05-26T13:05:53.216Z,37.47
2019-05-26T13:08:23.220Z,39.02
2019-05-26T13:10:53.209Z,38.72
2019-05-26T13:13:23.175Z,38.21
2019-05-26T13:15:53.245Z,37.45
2019-05-26T13:18:23.239Z,36.98
2019-05-26T13:20:53.335Z,36.42
2019-05-26T13:23:23.383Z,36.63
2019-05-26T13:25:53.393Z,37.17
2019-05-26T13:28:23.366Z,35.78
2019-05-26T13:30:53.403Z,36.46
2019-05-26T13:33:25.359Z,36.51
2019-05-26T13:35:55.365Z,36.47
2019-05-26T13:38:26.410Z,36.03
2019-05-26T13:40:56.355Z,36.91
2019-05-26T13:43:26.259Z,35.94
2019-05-26T13:45:56.274Z,36.66
2019-05-26T13:48:26.249Z,35.80
2019-05-26T13:50:56.256Z,35.91
2019-05-26T13:53:26.290Z,35.93
2019-05-26T13:55:56.306Z,36.52
2019-05-26T13:58:26.379Z,37.12
2019-05-26T14:00:56.446Z,36.05
2019-05-26T14:03:26.582Z,36.99
2019-05-26T14:05:56.591Z,35.44
2019-05-26T14:08:26.648Z,35.05
2019-05-26T14:10:56.950Z,35.48
2019-05-26T14:13:26.930Z,37.33
2019-05-26T14:15:58.217Z,34.94
2019-05-26T14:18:30.954Z,35.41
2019-05-26T14:21:01.057Z,33.80
2019-05-26T14:23:31.726Z,33.83
2019-05-26T14:26:02.565Z,35.04
2019-05-26T14:28:32.569Z,35.52
2019-05-26T14:31:02.546Z,35.42
2019-05-26T14:33:32.631Z,36.26
2019-05-26T14:36:02.681Z,36.25
2019-05-26T14:38:42.748Z,35.54
2019-05-26T14:41:04.364Z,36.74
2019-05-26T14:43:34.329Z,35.70
2019-05-26T14:46:04.289Z,35.67
2019-05-26T14:48:34.290Z,34.64
2019-05-26T14:51:04.364Z,34.80
2019-05-26T14:53:34.372Z,35.75
2019-05-26T14:56:04.342Z,35.98
2019-05-26T14:58:34.357Z,36.35
2019-05-26T15:01:04.452Z,34.64
2019-05-26T15:03:34.432Z,34.54
2019-05-26T15:06:06.216Z,35.84
2019-05-26T15:08:36.111Z,34.56
2019-05-26T15:11:06.080Z,34.98
2019-05-26T15:13:36.084Z,33.91
2019-05-26T15:16:10.241Z,34.52
2019-05-26T15:18:37.890Z,34.55
2019-05-26T15:21:07.992Z,34.37
2019-05-26T15:23:38.043Z,35.16
2019-05-26T15:26:08.018Z,35.81
2019-05-26T15:28:38.024Z,36.28
2019-05-26T15:31:10.058Z,35.85
2019-05-26T15:33:39.631Z,34.29
2019-05-26T15:36:09.604Z,33.53
2019-05-26T15:38:43.125Z,34.94
2019-05-26T15:41:11.271Z,33.58
2019-05-26T15:43:41.248Z,34.48
2019-05-26T15:46:24.261Z,33.24
2019-05-26T15:48:42.848Z,33.31
2019-05-26T15:51:12.818Z,31.96
2019-05-26T15:53:42.818Z,32.78
2019-05-26T15:56:12.791Z,32.89
2019-05-26T15:58:42.805Z,33.76
2019-05-26T16:01:12.841Z,32.06
2019-05-26T16:03:42.843Z,32.54
2019-05-26T16:06:12.809Z,32.07
2019-05-26T16:08:42.818Z,30.22
2019-05-26T16:11:12.781Z,29.76
2019-05-26T16:13:42.858Z,31.46
2019-05-26T16:16:12.852Z,31.53
2019-05-26T16:18:42.967Z,31.29
2019-05-26T16:21:27.054Z,32.56
2019-05-26T16:23:44.928Z,33.16
2019-05-26T16:26:15.000Z,33.01
2019-05-26T16:28:44.996Z,32.19
2019-05-26T16:31:15.037Z,32.46
2019-05-26T16:33:45.045Z,32.96
2019-05-26T16:36:15.014Z,33.87
2019-05-26T16:38:45.684Z,34.62
2019-05-26T16:41:15.663Z,35.08
2019-05-26T16:43:45.667Z,35.27
2019-05-26T16:46:15.709Z,35.32
2019-05-26T16:48:45.714Z,36.06
2019-05-26T16:51:15.689Z,36.25
2019-05-26T16:53:45.698Z,34.19
2019-05-26T16:56:15.737Z,34.18
2019-05-26T16:58:45.672Z,34.62
2019-05-26T17:01:15.640Z,35.42
2019-05-26T17:03:45.648Z,36.05
2019-05-26T17:06:15.614Z,35.63
2019-05-26T17:08:45.624Z,35.54
2019-05-26T17:11:15.594Z,36.10
2019-05-26T17:13:45.604Z,35.22
2019-05-26T17:16:15.645Z,34.85
2019-05-26T17:18:45.685Z,34.73
2019-05-26T17:21:15.634Z,34.59
2019-05-26T17:23:45.581Z,34.17
2019-05-26T17:26:15.624Z,34.06
2019-05-26T17:28:45.566Z,34.33
2019-05-26T17:31:16.635Z,34.63
2019-05-26T17:33:46.646Z,34.81
2019-05-26T17:36:16.633Z,34.88
2019-05-26T17:38:46.639Z,35.17
2019-05-26T17:41:16.610Z,34.39
2019-05-26T17:43:46.622Z,34.07
2019-05-26T17:46:16.662Z,35.44
2019-05-26T17:48:46.673Z,34.28
2019-05-26T17:51:17.709Z,34.50
2019-05-26T17:53:47.784Z,34.79
2019-05-26T17:56:17.764Z,36.30
2019-05-26T17:58:48.809Z,36.49
2019-05-26T18:01:18.850Z,37.04
2019-05-26T18:03:48.923Z,37.12
2019-05-26T18:06:18.937Z,37.89
2019-05-26T18:08:48.991Z,38.91
2019-05-26T18:11:18.993Z,39.18
2019-05-26T18:13:48.966Z,38.89
2019-05-26T18:16:19.144Z,39.26
2019-05-26T18:18:49.067Z,39.70
2019-05-26T18:21:19.079Z,39.68
2019-05-26T18:23:48.978Z,39.72
2019-05-26T18:26:18.927Z,40.06
2019-05-26T18:28:48.971Z,39.51
2019-05-26T18:31:19.007Z,40.05
2019-05-26T18:33:48.979Z,40.29
2019-05-26T18:36:18.988Z,41.20
2019-05-26T18:38:49.029Z,42.11
2019-05-26T18:41:18.962Z,42.64
2019-05-26T18:43:48.949Z,43.48
2019-05-26T18:46:18.962Z,44.05
2019-05-26T18:48:49.003Z,44.72
2019-05-26T18:51:19.010Z,45.17
2019-05-26T18:53:49.066Z,45.20
2019-05-26T18:56:19.077Z,45.62
2019-05-26T18:58:49.080Z,45.98
2019-05-26T19:01:19.156Z,46.64
2019-05-26T19:03:49.140Z,46.93
2019-05-26T19:06:19.213Z,47.21
2019-05-26T19:08:49.190Z,47.55
2019-05-26T19:11:19.284Z,47.81
2019-05-26T19:13:49.257Z,48.12
2019-05-26T19:16:19.210Z,48.41
2019-05-26T19:18:50.255Z,49.01
2019-05-26T19:21:20.263Z,49.10
2019-05-26T19:23:50.165Z,49.38
2019-05-26T19:26:20.186Z,49.56
2019-05-26T19:28:50.230Z,49.74
2019-05-26T19:31:20.302Z,50.10
2019-05-26T19:33:50.309Z,50.29
2019-05-26T19:36:20.356Z,50.60
2019-05-26T19:38:50.368Z,50.81
2019-05-26T19:41:20.422Z,51.02
2019-05-26T19:43:50.430Z,51.18
2019-05-26T19:46:20.400Z,51.27
2019-05-26T19:48:50.493Z,51.57
2019-05-26T19:51:20.464Z,51.69
2019-05-26T19:53:50.478Z,51.95
2019-05-26T19:56:20.530Z,52.71
2019-05-26T19:58:50.616Z,52.72
2019-05-26T20:01:20.659Z,52.94
2019-05-26T20:03:50.599Z,53.20
2019-05-26T20:06:20.644Z,53.48
2019-05-26T20:08:50.669Z,54.05
2019-05-26T20:11:20.717Z,55.23
2019-05-26T20:13:50.650Z,55.97
2019-05-26T20:16:20.642Z,55.92
2019-05-26T20:18:50.730Z,55.97
2019-05-26T20:21:20.775Z,55.93
2019-05-26T20:23:50.721Z,56.09
2019-05-26T20:26:20.698Z,56.28
2019-05-26T20:28:50.786Z,56.24
2019-05-26T20:31:20.831Z,56.08
2019-05-26T20:33:50.863Z,56.04
2019-05-26T20:36:20.910Z,56.12
2019-05-26T20:38:50.816Z,56.31
2019-05-26T20:41:20.889Z,56.42
2019-05-26T20:43:50.867Z,56.62
2019-05-26T20:46:20.955Z,56.83
2019-05-26T20:48:50.928Z,56.91
2019-05-26T20:51:20.933Z,56.86
2019-05-26T20:53:50.902Z,57.04
2019-05-26T20:56:20.924Z,57.19
2019-05-26T20:58:50.965Z,57.39
2019-05-26T21:01:20.912Z,57.78
2019-05-26T21:03:50.890Z,58.11
2019-05-26T21:06:20.965Z,58.29
2019-05-26T21:08:51.005Z,58.33
2019-05-26T21:11:21.027Z,58.42
2019-05-26T21:13:51.008Z,58.51
2019-05-26T21:16:21.014Z,58.32
2019-05-26T21:18:50.986Z,58.22
2019-05-26T21:21:20.938Z,58.14
2019-05-26T21:23:51.984Z,58.12
2019-05-26T21:26:21.929Z,58.22
2019-05-26T21:28:51.909Z,58.41
2019-05-26T21:31:21.821Z,58.62
2019-05-26T21:33:51.829Z,58.88
2019-05-26T21:36:21.730Z,59.00
2019-05-26T21:38:51.601Z,59.10
2019-05-26T21:41:21.574Z,59.25
2019-05-26T21:43:51.689Z,59.58
2019-05-26T21:46:21.630Z,59.88
2019-05-26T21:48:51.577Z,59.91
2019-05-26T21:51:21.481Z,59.80
2019-05-26T21:53:51.489Z,59.83
2019-05-26T21:56:21.493Z,59.88
2019-05-26T21:58:51.400Z,59.93
2019-05-26T22:01:21.414Z,60.00
2019-05-26T22:03:51.525Z,60.09
2019-05-26T22:06:21.532Z,60.09
2019-05-26T22:08:51.591Z,59.86
2019-05-26T22:11:21.541Z,59.43
2019-05-26T22:13:52.687Z,58.97
2019-05-26T22:16:22.694Z,58.72
2019-05-26T22:18:52.765Z,58.56
2019-05-26T22:21:22.674Z,58.57
2019-05-26T22:23:52.687Z,58.70
2019-05-26T22:26:22.593Z,58.74
2019-05-26T22:28:52.524Z,58.77
2019-05-26T22:31:22.498Z,58.97
2019-05-26T22:33:52.433Z,59.22
2019-05-26T22:36:22.407Z,59.42
2019-05-26T22:38:52.417Z,59.53
2019-05-26T22:41:22.320Z,59.62
2019-05-26T22:43:52.324Z,59.69
2019-05-26T22:46:22.299Z,59.69
2019-05-26T22:48:52.311Z,59.67
2019-05-26T22:51:22.322Z,59.56
2019-05-26T22:53:53.375Z,59.55
2019-05-26T22:56:23.307Z,59.61
2019-05-26T22:58:53.388Z,59.68
2019-05-26T23:01:23.439Z,59.77
2019-05-26T23:03:53.522Z,59.90
2019-05-26T23:06:23.494Z,59.83
2019-05-26T23:08:53.570Z,60.00
2019-05-26T23:11:23.473Z,59.89
2019-05-26T23:13:53.482Z,59.90
2019-05-26T23:16:23.538Z,59.88
2019-05-26T23:18:53.546Z,59.85
2019-05-26T23:21:23.518Z,59.90
2019-05-26T23:23:53.522Z,59.90
2019-05-26T23:26:23.494Z,60.04
2019-05-26T23:28:53.498Z,60.04
2019-05-26T23:31:23.474Z,60.15
2019-05-26T23:33:53.493Z,60.02
2019-05-26T23:36:23.467Z,59.89
2019-05-26T23:38:53.471Z,59.81
2019-05-26T23:41:23.449Z,59.96
2019-05-26T23:43:53.459Z,60.03
2019-05-26T23:46:23.432Z,60.27
2019-05-26T23:48:54.642Z,60.39
2019-05-26T23:51:24.617Z,61.03
2019-05-26T23:53:55.589Z,60.76
2019-05-26T23:56:25.529Z,60.75
2019-05-26T23:58:55.512Z,60.51
